Time;durP1;ratioP1;P1;durP2;ratioP2;P2;SDS_P1;SDS_P2;PMS_P1;PMS_P2;Temp;Humidity;BMP_temperature;BMP_pressure;BME280_temperature;BME280_humidity;BME280_pressure;Samples;Min_cycle;Max_cycle;Signal;HPM_P1;HPM_P2
2023/12/19 00:01:20;;;;;;;10.13;5.72;;;0.60;99.90;;;-0.37;100.00;98455.19;4999842;28;20058;-36
2023/12/19 00:03:46;;;;;;;9.23;5.53;;;0.60;99.90;;;-0.36;100.00;98454.31;4996727;28;20090;-36
2023/12/19 00:06:12;;;;;;;11.23;6.07;;;0.60;99.90;;;-0.35;100.00;98448.31;5003076;28;20065;-36
2023/12/19 00:08:37;;;;;;;9.88;5.95;;;0.60;99.90;;;-0.34;100.00;98444.88;4999481;28;20476;-36
2023/12/19 00:11:03;;;;;;;10.77;6.03;;;0.60;99.90;;;-0.34;100.00;98450.06;4997335;28;20626;-36
2023/12/19 00:13:29;;;;;;;10.40;5.78;;;0.60;99.90;;;-0.30;100.00;98457.06;5000021;28;20551;-36
2023/12/19 00:15:55;;;;;;;12.15;6.00;;;0.70;99.90;;;-0.27;100.00;98445.88;4998764;28;20390;-36
2023/12/19 00:18:20;;;;;;;10.88;5.68;;;0.70;99.90;;;-0.26;100.00;98442.47;5001549;28;20076;-36
2023/12/19 00:20:47;;;;;;;9.35;4.85;;;0.70;99.90;;;-0.25;100.00;98444.19;5004848;28;20398;-36
2023/12/19 00:23:12;;;;;;;8.77;5.47;;;0.70;99.90;;;-0.25;100.00;98439.00;4999466;28;20038;-36
2023/12/19 00:25:38;;;;;;;12.75;6.55;;;0.70;99.90;;;-0.27;100.00;98415.66;5006530;28;20030;-36
2023/12/19 00:28:04;;;;;;;13.30;6.68;;;0.70;99.90;;;-0.26;100.00;98411.34;4999346;28;20111;-36
2023/12/19 00:30:30;;;;;;;15.00;7.05;;;0.70;99.90;;;-0.26;100.00;98395.78;5001564;28;20030;-36
2023/12/19 00:32:56;;;;;;;13.68;7.35;;;0.80;99.90;;;-0.30;100.00;98383.63;5004063;28;20048;-36
2023/12/19 00:35:21;;;;;;;10.30;7.18;;;0.80;99.90;;;-0.30;100.00;98374.13;5005195;28;20060;-36
2023/12/19 00:37:47;;;;;;;11.23;6.53;;;0.70;99.90;;;-0.45;100.00;98343.56;5005007;28;20052;-36
2023/12/19 00:40:13;;;;;;;10.18;6.35;;;0.70;99.90;;;-0.47;100.00;98337.44;4997529;28;20065;-36
2023/12/19 00:42:39;;;;;;;13.05;6.80;;;0.70;99.90;;;-0.36;100.00;98353.22;4995064;28;20034;-36
2023/12/19 00:45:05;;;;;;;13.32;7.13;;;0.70;99.90;;;-0.44;100.00;98341.84;4996468;28;20386;-36
2023/12/19 00:47:31;;;;;;;11.88;6.97;;;0.60;99.90;;;-0.44;100.00;98345.28;5001339;28;20389;-36
2023/12/19 00:49:56;;;;;;;14.18;7.50;;;0.60;99.90;;;-0.43;100.00;98341.88;4992028;28;20478;-36
2023/12/19 00:52:22;;;;;;;12.98;7.03;;;0.60;99.90;;;-0.48;100.00;98348.66;4989095;28;20029;-36
2023/12/19 00:54:48;;;;;;;12.13;6.78;;;0.60;99.90;;;-0.48;100.00;98363.34;4993883;28;20037;-36
2023/12/19 00:57:14;;;;;;;14.88;6.15;;;0.50;99.90;;;-0.51;100.00;98368.47;4995728;28;20053;-37
2023/12/19 00:59:40;;;;;;;10.00;6.28;;;0.50;99.90;;;-0.69;100.00;98330.91;4994195;28;20033;-37
2023/12/19 01:02:06;;;;;;;9.63;5.82;;;0.50;99.90;;;-0.60;100.00;98353.56;4992839;28;20045;-36
2023/12/19 01:04:31;;;;;;;7.88;5.40;;;0.50;99.90;;;-0.51;100.00;98368.47;4991933;28;20041;-36
2023/12/19 01:06:57;;;;;;;10.82;5.82;;;0.50;99.90;;;-0.57;100.00;98353.66;4991450;28;20038;-37
2023/12/19 01:09:23;;;;;;;6.47;4.28;;;0.50;99.90;;;-0.50;100.00;98357.22;4990847;28;20049;-37
2023/12/19 01:11:49;;;;;;;9.77;4.78;;;0.50;99.90;;;-0.49;100.00;98356.41;4993073;28;20034;-37
2023/12/19 01:14:15;;;;;;;7.32;3.85;;;0.50;99.90;;;-0.49;100.00;98357.28;4994817;28;20033;-36
2023/12/19 01:16:40;;;;;;;6.60;4.05;;;0.50;99.90;;;-0.47;100.00;98353.00;4995137;28;20484;-37
2023/12/19 01:19:09;;;;;;;7.00;3.58;;;0.50;99.90;;;-0.45;100.00;98348.75;5000443;28;20387;-37
2023/12/19 01:21:36;;;;;;;5.45;3.67;;;0.50;99.90;;;-0.45;100.00;98340.97;4995152;28;20042;-37
2023/12/19 01:24:02;;;;;;;7.80;3.85;;;0.50;99.90;;;-0.44;100.00;98345.28;4994905;28;20037;-37
2023/12/19 01:26:29;;;;;;;6.68;3.75;;;0.50;99.90;;;-0.43;100.00;98349.66;5000282;28;20550;-37
2023/12/19 01:28:54;;;;;;;7.45;4.07;;;0.50;99.90;;;-0.42;100.00;98353.97;4998319;28;20034;-37
2023/12/19 01:31:20;;;;;;;6.68;3.63;;;0.60;99.90;;;-0.44;100.00;98355.66;4994287;28;20034;-37
2023/12/19 01:33:46;;;;;;;7.18;3.50;;;0.60;99.90;;;-0.41;100.00;98360.91;4993017;28;20108;-37
2023/12/19 01:36:11;;;;;;;6.72;3.75;;;0.60;99.90;;;-0.42;100.00;98368.66;4998248;28;20405;-37
2023/12/19 01:38:37;;;;;;;7.78;3.83;;;0.50;99.90;;;-0.47;100.00;98370.25;4994167;28;20034;-37
2023/12/19 01:41:03;;;;;;;6.07;3.70;;;0.50;99.90;;;-0.54;100.00;98396.88;4996228;28;20120;-37
2023/12/19 01:43:29;;;;;;;9.23;4.97;;;0.40;99.90;;;-0.75;100.00;98392.06;4998465;28;20111;-36
2023/12/19 01:45:54;;;;;;;14.65;8.02;;;0.40;99.90;;;-0.77;100.00;98405.00;4994630;28;20509;-37
2023/12/19 01:48:22;;;;;;;14.13;8.00;;;0.30;99.90;;;-0.77;100.00;98413.66;4990470;28;20307;-37
2023/12/19 01:50:48;;;;;;;15.48;9.00;;;0.20;99.90;;;-0.91;100.00;98398.63;4992184;28;20053;-37
2023/12/19 01:53:15;;;;;;;13.00;8.00;;;0.20;99.90;;;-1.00;100.00;98387.19;4985106;28;20026;-37
2023/12/19 01:55:41;;;;;;;13.05;8.18;;;0.10;99.90;;;-1.08;100.00;98377.47;4986903;28;20053;-37
2023/12/19 01:58:08;;;;;;;12.02;7.32;;;0.00;99.90;;;-1.12;100.00;98388.59;4994467;28;20045;-36
2023/12/19 02:00:37;;;;;;;13.80;7.05;;;0.00;99.90;;;-1.14;100.00;98391.13;4990963;28;20037;-36
2023/12/19 02:03:04;;;;;;;13.65;8.23;;;-0.10;99.90;;;-1.17;100.00;98385.88;4985104;28;20698;-37
2023/12/19 02:05:32;;;;;;;11.20;6.85;;;-0.10;99.90;;;-1.17;100.00;98381.59;4997015;28;20033;-37
2023/12/19 02:07:58;;;;;;;14.80;6.88;;;-0.10;99.90;;;-1.16;100.00;98393.69;4994022;28;20436;-37
2023/12/19 02:10:25;;;;;;;10.90;6.05;;;-0.20;99.90;;;-1.16;100.00;98387.66;4988906;28;20120;-36
2023/12/19 02:12:51;;;;;;;10.38;6.18;;;-0.20;99.90;;;-1.13;100.00;98386.84;4985137;28;20034;-36
2023/12/19 02:15:17;;;;;;;11.88;5.50;;;-0.20;99.90;;;-1.13;100.00;98395.50;5009523;28;20649;-37
2023/12/19 02:17:42;;;;;;;8.60;5.35;;;-0.10;99.90;;;-1.08;100.00;98405.94;5008576;28;20103;-36
2023/12/19 02:20:09;;;;;;;10.15;5.55;;;-0.10;99.90;;;-1.04;100.00;98402.59;4994090;28;20041;-37
2023/12/19 02:22:34;;;;;;;11.13;5.30;;;0.00;99.90;;;-0.98;100.00;98398.44;4985357;28;20030;-37
2023/12/19 02:25:00;;;;;;;8.68;5.20;;;0.00;99.90;;;-0.98;100.00;98395.88;4988149;28;20034;-37
2023/12/19 02:27:26;;;;;;;8.68;5.68;;;0.00;99.90;;;-0.97;100.00;98370.84;4987084;28;20609;-37
2023/12/19 02:29:52;;;;;;;9.45;5.47;;;0.10;99.90;;;-0.92;100.00;98370.97;4988389;28;20037;-37
2023/12/19 02:32:17;;;;;;;9.32;5.40;;;0.10;99.90;;;-0.91;100.00;98381.34;4989545;28;20532;-37
2023/12/19 02:34:43;;;;;;;9.32;5.25;;;0.10;99.90;;;-0.87;100.00;98372.81;4991596;28;20156;-37
2023/12/19 02:37:09;;;;;;;9.27;4.28;;;0.10;99.90;;;-0.87;100.00;98375.41;4987951;28;20030;-37
2023/12/19 02:39:34;;;;;;;7.93;5.10;;;0.10;99.90;;;-0.88;100.00;98360.72;4990128;28;20034;-37
2023/12/19 02:42:00;;;;;;;9.45;5.20;;;0.10;99.90;;;-0.89;100.00;98352.91;4991380;28;20037;-37
2023/12/19 02:44:26;;;;;;;7.50;4.88;;;0.10;99.90;;;-0.90;100.00;98346.84;4998035;28;20457;-37
2023/12/19 02:46:51;;;;;;;9.10;4.97;;;0.10;99.90;;;-0.93;100.00;98338.13;4985339;28;20437;-37
2023/12/19 02:49:17;;;;;;;9.23;5.90;;;0.10;99.90;;;-0.97;100.00;98334.56;4991402;28;20045;-37
2023/12/19 02:51:43;;;;;;;11.25;6.03;;;0.00;99.90;;;-1.00;100.00;98330.22;4968069;28;20569;-37
2023/12/19 02:54:09;;;;;;;13.40;6.43;;;0.00;99.90;;;-1.02;100.00;98339.66;4983470;28;20034;-37
2023/12/19 02:56:34;;;;;;;13.10;6.95;;;0.00;99.90;;;-1.04;100.00;98343.94;4991480;28;20037;-36
2023/12/19 02:59:01;;;;;;;12.02;6.60;;;0.00;99.90;;;-1.16;100.00;98322.94;4971032;28;20557;-37
2023/12/19 03:01:27;;;;;;;11.23;6.72;;;0.00;99.90;;;-1.18;100.00;98328.06;4979400;28;20065;-37
2023/12/19 03:03:53;;;;;;;11.35;6.85;;;0.00;99.90;;;-1.10;100.00;98341.19;4985730;28;20034;-37
2023/12/19 03:06:18;;;;;;;13.40;6.88;;;-0.10;99.90;;;-1.10;100.00;98348.94;4990295;28;20413;-37
2023/12/19 03:08:46;;;;;;;12.13;6.60;;;-0.10;99.90;;;-1.10;100.00;98341.19;4986810;28;20068;-37
2023/12/19 03:11:13;;;;;;;11.27;5.80;;;-0.10;99.90;;;-1.12;100.00;98331.63;4985391;28;20049;-38
2023/12/19 03:13:39;;;;;;;8.23;4.90;;;-0.10;99.90;;;-1.04;100.00;98338.75;4987363;28;20044;-38
2023/12/19 03:16:05;;;;;;;8.80;4.93;;;0.00;99.90;;;-1.08;100.00;98323.97;4987944;28;20025;-37
2023/12/19 03:18:31;;;;;;;9.13;5.43;;;0.00;99.90;;;-1.01;100.00;98341.41;4989452;28;20059;-39
2023/12/19 03:20:57;;;;;;;10.98;5.18;;;0.00;99.90;;;-0.98;100.00;98338.91;4993849;28;20038;-38
2023/12/19 03:23:23;;;;;;;7.40;4.80;;;0.00;99.90;;;-1.01;100.00;98335.34;4990748;28;20034;-37
2023/12/19 03:25:49;;;;;;;7.72;4.45;;;0.00;99.90;;;-0.97;100.00;98332.88;4980750;28;20045;-37
2023/12/19 03:28:15;;;;;;;5.65;3.85;;;0.00;99.90;;;-1.01;100.00;98320.69;4983824;28;20022;-39
2023/12/19 03:30:41;;;;;;;6.57;4.20;;;0.00;99.90;;;-0.95;100.00;98325.16;4991816;28;20064;-38
2023/12/19 03:33:06;;;;;;;6.05;3.85;;;0.10;99.90;;;-0.89;100.00;98324.44;4986164;28;20481;-38
2023/12/19 03:35:32;;;;;;;6.07;4.07;;;0.10;99.90;;;-0.94;100.00;98319.13;4999537;28;20061;-38
2023/12/19 03:37:58;;;;;;;6.22;3.95;;;0.00;99.90;;;-0.96;100.00;98321.66;4992871;28;20109;-38
2023/12/19 03:40:24;;;;;;;6.18;4.15;;;0.10;99.90;;;-0.97;100.00;98316.44;4997147;28;20031;-38
2023/12/19 03:42:50;;;;;;;7.15;4.07;;;0.00;99.90;;;-1.00;100.00;98309.50;4993488;28;20033;-38
2023/12/19 03:45:15;;;;;;;7.18;4.15;;;0.00;99.90;;;-1.08;100.00;98287.72;4996239;28;20029;-38
2023/12/19 03:47:41;;;;;;;7.00;4.13;;;0.00;99.90;;;-1.02;100.00;98310.31;4999891;28;20055;-38
2023/12/19 03:50:08;;;;;;;8.35;4.38;;;0.00;99.90;;;-1.05;100.00;98303.34;4991912;28;20352;-38
2023/12/19 03:52:34;;;;;;;7.95;4.13;;;0.00;99.90;;;-1.04;100.00;98320.63;4994988;28;20040;-37
2023/12/19 03:55:00;;;;;;;6.82;4.13;;;0.00;99.90;;;-1.07;100.00;98312.78;4988024;28;20128;-38
2023/12/19 03:57:26;;;;;;;11.80;4.57;;;-0.10;99.90;;;-1.09;100.00;98311.88;4969311;28;20364;-37
2023/12/19 03:59:53;;;;;;;7.70;4.35;;;-0.10;99.90;;;-1.08;100.00;98304.97;4995335;28;20026;-38
2023/12/19 04:02:19;;;;;;;7.13;4.25;;;-0.10;99.90;;;-1.09;100.00;98306.69;4989171;28;20038;-37
2023/12/19 04:04:45;;;;;;;7.13;3.80;;;-0.10;99.90;;;-1.05;100.00;98302.47;4996857;28;20053;-37
2023/12/19 04:07:11;;;;;;;6.43;3.90;;;-0.10;99.90;;;-1.01;100.00;98297.38;4990251;28;20437;-37
2023/12/19 04:09:36;;;;;;;6.50;4.00;;;0.00;99.90;;;-0.98;100.00;98286.25;5011495;28;20505;-37
2023/12/19 04:12:03;;;;;;;6.85;3.70;;;0.00;99.90;;;-1.06;100.00;98265.34;4992686;28;20053;-37
2023/12/19 04:14:33;;;;;;;8.60;4.30;;;0.00;99.90;;;-0.96;100.00;98277.66;4994021;28;20108;-37
2023/12/19 04:16:59;;;;;;;6.90;3.83;;;0.00;99.90;;;-1.07;100.00;98258.41;4994615;28;20057;-37
2023/12/19 04:19:25;;;;;;;7.05;4.20;;;0.00;99.90;;;-1.01;100.00;98287.03;4997917;28;20125;-37
2023/12/19 04:21:51;;;;;;;8.60;4.78;;;0.00;99.90;;;-1.06;100.00;98278.31;4991531;28;20488;-37
2023/12/19 04:24:19;;;;;;;8.63;5.28;;;0.00;99.90;;;-1.04;100.00;98275.72;4989874;28;20586;-37
2023/12/19 04:26:46;;;;;;;10.85;5.95;;;0.00;99.90;;;-1.11;100.00;98260.88;4994900;28;20108;-37
2023/12/19 04:29:12;;;;;;;10.02;6.05;;;-0.10;99.90;;;-1.09;100.00;98264.41;4987983;28;21077;-37
2023/12/19 04:31:39;;;;;;;11.48;5.57;;;-0.10;99.90;;;-1.07;100.00;98255.81;4994680;28;20038;-37
2023/12/19 04:34:04;;;;;;;8.40;5.13;;;-0.10;99.90;;;-1.07;100.00;98260.13;4985404;28;20050;-36
2023/12/19 04:36:31;;;;;;;8.38;5.03;;;-0.10;99.90;;;-1.10;100.00;98255.75;4988316;28;20486;-37
2023/12/19 04:38:57;;;;;;;8.30;4.78;;;-0.10;99.90;;;-1.23;100.00;98233.03;4984756;28;20042;-37
2023/12/19 04:41:23;;;;;;;8.10;4.85;;;-0.10;99.90;;;-1.14;100.00;98251.34;4991372;28;20529;-37
2023/12/19 04:43:49;;;;;;;7.78;4.28;;;-0.10;99.90;;;-1.23;100.00;98230.44;4992027;28;20076;-37
2023/12/19 04:46:15;;;;;;;6.65;4.25;;;-0.10;99.90;;;-1.08;100.00;98264.41;4990589;28;20422;-37
2023/12/19 04:48:42;;;;;;;8.57;4.40;;;-0.10;99.90;;;-1.09;100.00;98262.69;4989515;28;20084;-38
2023/12/19 04:51:17;;;;;;;7.63;4.22;;;-0.10;99.90;;;-1.10;100.00;98260.06;4988012;28;20044;-38
2023/12/19 04:53:42;;;;;;;6.55;3.50;;;-0.10;99.90;;;-1.14;100.00;98269.47;4994295;28;20184;-37
2023/12/19 04:56:11;;;;;;;7.40;3.97;;;-0.10;99.90;;;-1.14;100.00;98256.53;4986538;28;20311;-38
2023/12/19 04:58:38;;;;;;;7.97;4.60;;;-0.10;99.90;;;-1.18;100.00;98244.34;4992970;28;20056;-37
2023/12/19 05:01:03;;;;;;;6.03;3.78;;;-0.10;99.90;;;-1.29;100.00;98210.47;4986972;28;20422;-37
2023/12/19 05:03:29;;;;;;;6.93;3.75;;;-0.10;99.90;;;-1.24;100.00;98208.84;4995880;28;20767;-37
2023/12/19 05:05:55;;;;;;;10.25;4.10;;;-0.10;99.90;;;-1.21;100.00;98226.16;4984789;28;20030;-37
2023/12/19 05:08:21;;;;;;;6.50;4.00;;;-0.20;99.90;;;-1.21;100.00;98229.63;4996038;28;20716;-39
2023/12/19 05:10:46;;;;;;;6.80;3.83;;;-0.20;99.90;;;-1.22;100.00;98222.72;4982997;28;20029;-36
2023/12/19 05:13:12;;;;;;;8.65;4.80;;;-0.20;99.90;;;-1.26;100.00;98220.00;4992174;28;20370;-37
2023/12/19 05:15:38;;;;;;;10.60;4.85;;;-0.20;99.90;;;-1.40;100.00;98205.03;4984573;28;20521;-37
2023/12/19 05:18:04;;;;;;;10.20;4.90;;;-0.20;99.90;;;-1.36;100.00;98222.38;4986761;28;20038;-37
2023/12/19 05:20:30;;;;;;;7.88;4.28;;;-0.30;99.90;;;-1.39;100.00;98229.19;4994773;28;20034;-37
2023/12/19 05:22:55;;;;;;;6.72;4.28;;;-0.40;99.90;;;-1.45;100.00;98211.81;4994658;28;20026;-37
2023/12/19 05:25:21;;;;;;;9.90;4.40;;;-0.40;99.90;;;-1.49;100.00;98212.59;4998286;28;20037;-37
2023/12/19 05:27:47;;;;;;;7.38;4.50;;;-0.50;99.90;;;-1.57;100.00;98217.56;4982086;28;20035;-38
2023/12/19 05:30:13;;;;;;;6.90;4.18;;;-0.50;99.90;;;-1.56;100.00;98219.31;4991421;28;20777;-37
2023/12/19 05:32:39;;;;;;;6.53;3.88;;;-0.50;99.90;;;-1.56;100.00;98226.22;5000147;28;20029;-37
2023/12/19 05:35:06;;;;;;;7.93;3.63;;;-0.60;99.90;;;-1.66;100.00;98222.50;4995508;28;20056;-37
2023/12/19 05:37:31;;;;;;;10.57;4.50;;;-0.60;99.90;;;-1.70;100.00;98212.06;4996567;28;20042;-37
2023/12/19 05:39:57;;;;;;;7.55;4.25;;;-0.60;99.90;;;-1.66;100.00;98217.34;4989593;28;20040;-37
2023/12/19 05:42:24;;;;;;;7.35;3.90;;;-0.60;99.90;;;-1.65;100.00;98216.53;4990709;28;20405;-37
2023/12/19 05:44:49;;;;;;;4.55;2.72;;;-0.60;99.90;;;-1.62;100.00;98206.22;4983622;28;20087;-37
2023/12/19 05:47:15;;;;;;;4.45;2.30;;;-0.60;99.90;;;-1.58;100.00;98202.00;4974603;28;20490;-37
2023/12/19 05:49:41;;;;;;;4.28;1.90;;;-0.50;99.90;;;-1.50;100.00;98210.84;4988265;28;20558;-37
2023/12/19 05:52:07;;;;;;;4.57;1.90;;;-0.50;99.90;;;-1.48;100.00;98216.91;4979230;28;20060;-37
2023/12/19 05:54:33;;;;;;;3.15;1.85;;;-0.50;99.90;;;-1.44;100.00;98212.69;4991168;28;20100;-37
2023/12/19 05:56:59;;;;;;;3.95;1.95;;;-0.50;99.90;;;-1.46;100.00;98204.00;5002975;28;20029;-38
2023/12/19 05:59:24;;;;;;;3.95;2.17;;;-0.40;99.90;;;-1.50;100.00;98194.44;4986120;28;20034;-38
2023/12/19 06:01:50;;;;;;;2.88;1.70;;;-0.50;99.90;;;-1.53;100.00;98182.28;4990936;28;20843;-37
2023/12/19 06:04:16;;;;;;;2.90;1.73;;;-0.50;99.90;;;-1.51;100.00;98183.19;4992971;28;20050;-37
2023/12/19 06:06:44;;;;;;;2.60;1.63;;;-0.50;99.90;;;-1.49;100.00;98186.72;4989689;28;20033;-36
2023/12/19 06:09:11;;;;;;;3.17;1.77;;;-0.50;99.90;;;-1.46;100.00;98189.34;4987922;28;20166;-37
2023/12/19 06:11:37;;;;;;;4.25;3.28;;;-0.50;99.90;;;-1.48;100.00;98198.81;4988413;28;20030;-37
2023/12/19 06:14:05;;;;;;;6.70;3.70;;;-0.40;99.90;;;-1.45;100.00;98209.22;4979786;28;20482;-37
2023/12/19 06:16:32;;;;;;;10.20;3.63;;;-0.50;99.90;;;-1.69;100.00;98217.25;4987496;28;20585;-37
2023/12/19 06:18:58;;;;;;;6.40;3.00;;;-0.60;99.90;;;-1.94;100.00;98215.78;4993888;28;20135;-37
2023/12/19 06:21:24;;;;;;;10.18;4.05;;;-0.80;99.90;;;-2.20;100.00;98207.34;4996360;28;20033;-36
2023/12/19 06:23:50;;;;;;;6.60;3.45;;;-0.90;99.90;;;-2.15;100.00;98240.25;4983594;28;20138;-36
2023/12/19 06:26:16;;;;;;;5.30;3.30;;;-1.00;99.90;;;-2.29;100.00;98231.25;4985022;28;20686;-37
2023/12/19 06:28:42;;;;;;;5.75;3.50;;;-1.00;99.90;;;-2.24;100.00;98250.34;4982433;28;20040;-37
2023/12/19 06:31:07;;;;;;;7.70;3.95;;;-1.00;99.90;;;-2.22;100.00;98250.38;5008001;22;20157;-37
2023/12/19 06:33:33;;;;;;;8.50;3.75;;;-1.10;99.90;;;-2.22;100.00;98260.72;5005266;28;20083;-37
2023/12/19 06:35:59;;;;;;;6.45;3.83;;;-1.10;99.90;;;-2.24;100.00;98260.66;5002842;28;20037;-37
2023/12/19 06:38:24;;;;;;;7.40;3.85;;;-1.10;99.90;;;-2.23;100.00;98264.13;5008144;28;20033;-37
2023/12/19 06:40:50;;;;;;;10.18;4.65;;;-1.20;99.90;;;-2.28;100.00;98260.53;5007829;28;20041;-38
2023/12/19 06:43:17;;;;;;;7.18;4.05;;;-1.20;99.90;;;-2.24;100.00;98258.09;4992117;28;20470;-37
2023/12/19 06:45:42;;;;;;;10.00;4.45;;;-1.20;99.90;;;-2.23;100.00;98264.13;5004676;28;20128;-38
2023/12/19 06:48:08;;;;;;;8.75;4.80;;;-1.20;99.90;;;-2.25;100.00;98279.56;5003073;28;20048;-37
2023/12/19 06:50:34;;;;;;;7.90;4.22;;;-1.20;99.90;;;-2.35;100.00;98267.22;5001459;28;20041;-38
2023/12/19 06:53:00;;;;;;;7.63;4.50;;;-1.20;99.90;;;-2.36;100.00;98271.53;4998253;28;20505;-38
2023/12/19 06:55:27;;;;;;;9.68;4.65;;;-1.30;99.90;;;-2.37;100.00;98266.31;5004662;28;20095;-37
2023/12/19 06:57:53;;;;;;;13.02;5.75;;;-1.30;99.90;;;-2.39;100.00;98263.69;5005236;28;20044;-37
2023/12/19 07:00:18;;;;;;;10.55;6.15;;;-1.20;99.90;;;-2.38;100.00;98251.66;5001655;28;20057;-37
2023/12/19 07:02:44;;;;;;;13.18;6.13;;;-1.20;99.90;;;-2.32;100.00;98241.47;5006962;28;20037;-38
2023/12/19 07:05:10;;;;;;;13.93;6.40;;;-1.30;99.90;;;-2.29;100.00;98236.41;5003086;28;20068;-37
2023/12/19 07:07:36;;;;;;;14.20;7.07;;;-1.20;99.90;;;-2.30;100.00;98221.72;5006907;28;20022;-37
2023/12/19 07:10:03;;;;;;;10.93;5.88;;;-1.20;99.90;;;-2.28;100.00;98232.97;4982090;28;20037;-37
2023/12/19 07:12:29;;;;;;;11.35;6.03;;;-1.10;99.90;;;-2.29;100.00;98215.75;5009204;28;20017;-37
2023/12/19 07:14:55;;;;;;;12.65;5.97;;;-1.10;99.90;;;-2.32;100.00;98211.34;5006361;28;20033;-37
2023/12/19 07:17:22;;;;;;;13.25;5.72;;;-1.20;99.90;;;-2.28;100.00;98226.94;5005364;28;20056;-37
2023/12/19 07:19:48;;;;;;;9.77;5.65;;;-1.20;99.90;;;-2.28;100.00;98224.34;5008195;28;20026;-37
2023/12/19 07:22:13;;;;;;;8.90;5.47;;;-1.20;99.90;;;-2.32;100.00;98203.59;5008359;28;20237;-37
2023/12/19 07:24:39;;;;;;;10.27;5.82;;;-1.20;99.90;;;-2.32;100.00;98219.09;5012629;28;20478;-37
2023/12/19 07:27:05;;;;;;;10.75;5.75;;;-1.20;99.90;;;-2.18;100.00;98247.91;5009052;28;20135;-37
2023/12/19 07:29:31;;;;;;;10.65;5.80;;;-1.10;99.90;;;-2.21;100.00;98241.78;5012484;28;20536;-37
2023/12/19 07:31:58;;;;;;;12.45;6.20;;;-1.00;99.90;;;-2.21;100.00;98242.63;5006998;28;20450;-38
2023/12/19 07:34:23;;;;;;;11.18;5.45;;;-1.10;99.90;;;-2.22;100.00;98232.28;5012465;28;20083;-37
2023/12/19 07:36:50;;;;;;;13.00;5.82;;;-1.10;99.90;;;-2.25;100.00;98229.63;5011495;28;20258;-38
2023/12/19 07:39:16;;;;;;;11.77;6.20;;;-1.10;99.90;;;-2.27;100.00;98231.28;5016582;28;21942;-37
2023/12/19 07:41:42;;;;;;;17.23;7.15;;;-1.10;99.90;;;-2.24;100.00;98252.91;5012489;28;20038;-38
2023/12/19 07:44:09;;;;;;;15.05;6.35;;;-1.10;99.90;;;-2.19;100.00;98258.19;5007693;28;20506;-37
2023/12/19 07:46:40;;;;;;;10.57;6.63;;;-1.10;99.90;;;-2.21;100.00;98254.69;5009625;28;20036;-37
2023/12/19 07:49:05;;;;;;;11.20;6.32;;;-1.10;99.90;;;-2.21;100.00;98255.56;5005549;28;20029;-37
2023/12/19 07:51:31;;;;;;;13.68;6.35;;;-1.10;99.90;;;-2.28;100.00;98253.66;5008695;28;20107;-37
2023/12/19 07:53:57;;;;;;;12.13;5.88;;;-1.10;99.90;;;-2.26;100.00;98246.84;5011224;28;20478;-38
2023/12/19 07:56:23;;;;;;;16.20;7.38;;;-1.10;99.90;;;-2.25;100.00;98261.50;5013945;28;20033;-38
2023/12/19 07:58:49;;;;;;;14.68;7.50;;;-1.10;99.90;;;-2.23;100.00;98256.38;5014348;28;20160;-38
2023/12/19 08:01:14;;;;;;;9.45;5.55;;;-1.10;99.90;;;-2.14;100.00;98241.97;5005885;28;20077;-37
2023/12/19 08:03:43;;;;;;;10.45;6.55;;;-1.00;99.90;;;-2.09;100.00;98254.16;5008800;28;20490;-38
2023/12/19 08:06:09;;;;;;;13.65;7.05;;;-1.00;99.90;;;-2.02;100.00;98256.06;5009741;28;20312;-38
2023/12/19 08:08:35;;;;;;;15.15;7.18;;;-1.00;99.90;;;-2.00;100.00;98269.91;5013083;28;20026;-37
2023/12/19 08:11:00;;;;;;;14.93;7.13;;;-0.90;99.90;;;-1.96;100.00;98266.56;5010670;28;20064;-36
2023/12/19 08:13:26;;;;;;;13.68;7.25;;;-0.90;99.90;;;-1.95;100.00;98258.00;5008918;28;20418;-36
2023/12/19 08:15:52;;;;;;;12.30;7.20;;;-0.80;99.90;;;-1.90;100.00;98251.22;5010288;28;20076;-37
2023/12/19 08:18:21;;;;;;;15.07;7.65;;;-0.80;99.90;;;-1.89;100.00;98255.56;5008068;28;20026;-36
2023/12/19 08:20:47;;;;;;;12.80;7.20;;;-0.80;99.90;;;-1.85;100.00;98251.34;5010506;28;20029;-37
2023/12/19 08:23:13;;;;;;;14.00;7.93;;;-0.80;99.90;;;-1.90;100.00;98242.56;5009615;28;20297;-36
2023/12/19 08:25:41;;;;;;;12.63;7.03;;;-0.80;99.90;;;-1.92;100.00;98225.34;5011991;28;20072;-36
2023/12/19 08:28:10;;;;;;;14.43;7.40;;;-0.70;99.90;;;-2.04;100.00;98219.84;5009255;28;20494;-36
2023/12/19 08:30:37;;;;;;;16.80;8.57;;;-0.70;99.90;;;-1.84;100.00;98235.00;5008967;28;20233;-36
2023/12/19 08:33:03;;;;;;;11.82;6.95;;;-0.70;99.90;;;-1.81;100.00;98223.03;5008699;28;20469;-36
2023/12/19 08:35:29;;;;;;;14.70;7.93;;;-0.70;99.90;;;-1.76;100.00;98231.78;5013425;28;20041;-36
2023/12/19 08:37:55;;;;;;;14.70;7.38;;;-0.70;99.90;;;-1.73;100.00;98221.47;5012332;28;20109;-37
2023/12/19 08:40:21;;;;;;;11.10;7.25;;;-0.60;99.90;;;-1.69;100.00;98222.44;5006514;28;20033;-37
2023/12/19 08:42:48;;;;;;;13.48;7.60;;;-0.60;99.90;;;-1.65;100.00;98224.28;5011218;28;20143;-38
2023/12/19 08:45:16;;;;;;;14.15;7.32;;;-0.50;99.90;;;-1.59;100.00;98215.78;5013832;28;20115;-37
2023/12/19 08:47:44;;;;;;;14.25;7.95;;;-0.50;99.90;;;-1.50;100.00;98212.56;5017242;28;20085;-37
2023/12/19 08:50:15;;;;;;;14.98;7.28;;;-0.50;99.90;;;-1.45;100.00;98218.72;5013256;28;20059;-36
2023/12/19 08:52:42;;;;;;;11.48;7.15;;;-0.40;99.90;;;-1.39;100.00;98211.09;5010205;28;20021;-36
2023/12/19 08:55:12;;;;;;;11.82;7.68;;;-0.30;99.90;;;-1.35;100.00;98221.56;5011761;28;23891;-36
2023/12/19 08:57:42;;;;;;;16.52;8.77;;;-0.30;99.90;;;-1.18;100.00;98215.88;5012003;28;20076;-36
2023/12/19 09:00:13;;;;;;;12.95;7.80;;;-0.20;99.90;;;-1.16;100.00;98220.25;5009890;28;20043;-36
2023/12/19 09:02:42;;;;;;;12.50;7.00;;;-0.10;99.90;;;-1.10;100.00;98216.06;5008836;28;20045;-36
2023/12/19 09:05:13;;;;;;;12.95;7.70;;;-0.10;99.90;;;-1.16;100.00;98198.66;5005589;28;20029;-36
2023/12/19 09:07:40;;;;;;;14.25;8.32;;;0.00;99.90;;;-0.94;100.00;98206.91;4995777;28;20032;-36
2023/12/19 09:10:06;;;;;;;14.90;7.82;;;0.10;99.90;;;-0.89;100.00;98203.56;5014349;28;20895;-37
2023/12/19 09:12:36;;;;;;;16.67;7.88;;;0.10;99.90;;;-0.82;100.00;98200.25;5014906;28;20500;-36
2023/12/19 09:15:03;;;;;;;14.20;8.30;;;0.20;99.90;;;-0.72;100.00;98201.31;4995677;28;20037;-37
2023/12/19 09:17:29;;;;;;;15.70;9.00;;;0.30;99.90;;;-0.63;100.00;98193.75;5013235;28;20053;-37
2023/12/19 09:19:56;;;;;;;14.13;8.55;;;0.40;99.90;;;-0.66;100.00;98165.19;5014420;28;20030;-38
2023/12/19 09:22:22;;;;;;;14.88;8.70;;;0.50;99.90;;;-0.46;100.00;98188.03;5015081;28;20039;-37
2023/12/19 09:24:48;;;;;;;15.32;9.15;;;0.50;99.90;;;-0.37;100.00;98187.34;4999671;28;20497;-37
2023/12/19 09:27:13;;;;;;;15.55;8.43;;;0.60;99.90;;;-0.31;100.00;98183.13;5011421;28;20049;-38
2023/12/19 09:29:40;;;;;;;16.13;9.18;;;0.70;99.90;;;-0.24;100.00;98187.56;5012889;28;20746;-37
2023/12/19 09:32:07;;;;;;;12.93;8.30;;;0.80;99.90;;;-0.18;100.00;98173.84;5008740;28;20462;-36
2023/12/19 09:34:34;;;;;;;14.57;8.25;;;0.80;99.90;;;-0.13;100.00;98169.63;5015056;28;20152;-37
2023/12/19 09:36:59;;;;;;;16.30;9.10;;;0.90;99.90;;;-0.12;100.00;98152.38;5014116;28;20030;-37
2023/12/19 09:39:25;;;;;;;14.05;8.52;;;0.90;99.90;;;-0.07;100.00;98149.00;5006080;28;20041;-36
2023/12/19 09:41:51;;;;;;;15.40;8.45;;;0.90;99.90;;;-0.03;100.00;98147.31;5010644;28;20029;-36
2023/12/19 09:44:17;;;;;;;16.67;9.13;;;1.00;99.90;;;0.12;100.00;98136.31;4993827;28;20072;-37
2023/12/19 09:46:49;;;;;;;17.05;9.65;;;1.00;99.90;;;0.09;100.00;98150.13;5012147;28;20473;-37
2023/12/19 09:49:21;;;;;;;15.27;8.93;;;1.10;99.90;;;0.18;100.00;98165.84;5012296;28;20547;-38
2023/12/19 09:51:53;;;;;;;12.95;7.85;;;1.10;99.90;;;0.20;100.00;98184.03;5012622;28;20048;-36
2023/12/19 09:54:21;;;;;;;14.82;9.15;;;1.10;99.90;;;0.05;100.00;98176.84;5009176;28;20063;-39
2023/12/19 09:56:48;;;;;;;17.75;9.15;;;1.10;99.90;;;-0.02;100.00;98159.44;5012727;28;20052;-38
2023/12/19 09:59:20;;;;;;;14.95;9.20;;;1.00;99.90;;;-0.01;100.00;98177.63;5010380;28;20022;-37
2023/12/19 10:01:47;;;;;;;14.43;9.30;;;0.90;99.90;;;-0.11;100.00;98192.97;5009350;28;20022;-37
2023/12/19 10:04:16;;;;;;;15.82;8.73;;;0.90;99.90;;;-0.16;100.00;98181.66;5009052;28;20505;-38
2023/12/19 10:07:02;;;;;;;19.27;10.10;;;0.90;99.90;;;-0.18;100.00;98176.44;5012426;28;20049;-37
2023/12/19 10:09:28;;;;;;;17.38;9.57;;;0.90;99.90;;;-0.25;100.00;98159.03;5012428;28;20044;-37